Time;durP1;ratioP1;P1;durP2;ratioP2;P2;SDS_P1;SDS_P2;PMS_P1;PMS_P2;Temp;Humidity;BMP_temperature;BMP_pressure;BME280_temperature;BME280_humidity;BME280_pressure;Samples;Min_cycle;Max_cycle;Signal;HPM_P1;HPM_P2
2022/07/03 00:00:06;;;;;;;;;;;;;;;;;;;;;
2022/07/03 00:03:55;;;;;;;;;;;;;;;;;;;;;
2022/07/03 00:07:28;;;;;;;;;;;;;;;;;;;;;
2022/07/03 00:14:39;;;;;;;;;;;;;;;;;;;;;
2022/07/03 00:18:07;;;;;;;;;;;;;;;;;;;;;
2022/07/03 00:21:47;;;;;;;;;;;;;;;;;;;;;
2022/07/03 00:25:29;;;;;;;;;;;;;;;;;;;;;
2022/07/03 00:29:09;;;;;;;10.70;5.90;;;;;;;15.11;59.19;99580.89;104964;1290;22783;-86
2022/07/03 00:32:50;;;;;;;;;;;;;;;;;;;;;
2022/07/03 00:36:52;;;;;;;12.50;5.70;;;;;;;14.89;59.24;99575.94;104443;1294;25385;-86
2022/07/03 00:39:39;;;;;;;;;;;;;;;;;;;;;
2022/07/03 00:43:33;;;;;;;10.30;5.70;;;;;;;14.78;59.39;99570.05;104658;1293;25490;-86
2022/07/03 00:51:17;;;;;;;11.60;5.00;;;;;;;14.80;59.72;99563.95;104086;1297;22575;-87
2022/07/03 00:55:06;;;;;;;11.50;6.00;;;;;;;14.84;59.72;99557.13;103858;1300;22484;-86
2022/07/03 00:58:12;;;;;;;;;;;;;;;;;;;;;
2022/07/03 01:02:16;;;;;;;13.30;6.60;;;;;;;14.75;59.77;99555.60;103326;1309;24334;-87
2022/07/03 01:08:53;;;;;;;;;;;;;;;;;;;;;
2022/07/03 01:12:16;;;;;;;11.10;6.40;;;;;;;14.38;60.14;99550.64;103004;1308;22580;-86
2022/07/03 01:15:50;;;;;;;;;;;;;;;;;;;;;
2022/07/03 01:19:28;;;;;;;10.50;6.10;;;;;;;14.34;60.41;99552.21;103007;1309;22727;-86
2022/07/03 01:23:37;;;;;;;10.90;6.00;;;;;;;14.47;60.47;99550.10;102669;1314;22842;-90
2022/07/03 01:27:24;;;;;;;11.30;6.60;;;;;;;14.49;60.35;99557.85;102507;1315;23954;-86
2022/07/03 01:30:32;;;;;;;11.80;6.30;;;;;;;14.35;60.42;99560.76;102896;1306;22618;-86
2022/07/03 01:34:42;;;;;;;11.70;6.80;;;;;;;14.25;60.42;99554.67;103463;1300;22632;-87
2022/07/03 01:37:52;;;;;;;12.40;7.40;;;;;;;14.08;60.52;99551.61;103934;1300;22563;-88
2022/07/03 01:40:53;;;;;;;14.40;9.10;;;;;;;13.95;60.75;99552.11;103445;1306;24305;-86
2022/07/03 01:44:21;;;;;;;12.60;8.20;;;;;;;13.76;60.68;99538.91;103426;1306;25481;-86
2022/07/03 01:47:32;;;;;;;13.40;7.10;;;;;;;13.68;61.11;99537.20;103778;1303;24317;-86
2022/07/03 01:50:40;;;;;;;12.30;7.70;;;;;;;13.66;60.93;99530.74;103947;1300;22574;-88
2022/07/03 01:54:47;;;;;;;11.30;7.60;;;;;;;13.51;61.16;99525.23;103918;1300;22587;-86
2022/07/03 01:57:50;;;;;;;;;;;;;;;;;;;;;
2022/07/03 02:01:10;;;;;;;;;;;;;;;;;;;;;
2022/07/03 02:04:29;;;;;;;14.70;8.30;;;;;;;13.56;61.66;99542.76;104872;1288;22636;-88
2022/07/03 02:08:30;;;;;;;14.60;7.80;;;;;;;13.58;61.57;99539.23;104938;1288;22558;-90
2022/07/03 02:11:49;;;;;;;;;;;;;;;;;;;;;
2022/07/03 02:14:59;;;;;;;11.90;7.20;;;;;;;13.67;61.67;99548.16;105211;1285;25498;-87
2022/07/03 02:19:12;;;;;;;13.70;7.90;;;;;;;13.59;61.74;99540.03;105530;1280;25315;-86
2022/07/03 02:22:04;;;;;;;11.40;7.30;;;;;;;13.63;61.97;99544.53;105039;1289;22748;-87
2022/07/03 02:25:16;;;;;;;12.50;7.80;;;;;;;13.69;62.01;99542.27;105012;1290;24535;-87
2022/07/03 02:32:12;;;;;;;12.60;7.60;;;;;;;13.66;62.09;99539.10;102830;1312;544988;-86
2022/07/03 02:35:48;;;;;;;14.00;7.50;;;;;;;13.58;62.10;99537.92;105383;1286;22659;-86
2022/07/03 02:39:14;;;;;;;11.10;6.90;;;;;;;13.47;62.15;99530.37;104068;1298;22693;-86
2022/07/03 02:42:36;;;;;;;11.80;6.80;;;;;;;13.56;62.32;99530.43;104503;1292;22557;-86
2022/07/03 02:45:58;;;;;;;12.60;7.40;;;;;;;13.60;62.33;99529.89;99919;1300;5341583;-86
2022/07/03 02:49:12;;;;;;;11.80;7.10;;;;;;;13.59;62.45;99529.29;103571;1303;22683;-88
2022/07/03 02:52:40;;;;;;;12.30;8.40;;;;;;;13.55;62.26;99524.63;103716;1300;22599;-88
2022/07/03 02:56:26;;;;;;;;;;;;;;;;;;;;;
2022/07/03 03:00:45;;;;;;;11.10;7.10;;;;;;;13.47;62.46;99518.54;103356;1306;25528;-88
2022/07/03 03:03:42;;;;;;;11.80;7.30;;;;;;;13.50;62.57;99524.93;103201;1306;22568;-88
2022/07/03 03:06:55;;;;;;;;;;;;;;;;;;;;;
2022/07/03 03:10:03;;;;;;;13.60;7.50;;;;;;;13.62;62.73;99526.06;103298;1306;25346;-86
2022/07/03 03:13:29;;;;;;;11.60;7.20;;;;;;;13.64;62.62;99523.89;103170;1306;24455;-89
2022/07/03 03:16:55;;;;;;;10.90;7.50;;;;;;;13.69;62.77;99520.15;104115;1295;22738;-90
2022/07/03 03:20:22;;;;;;;;;;;;;;;;;;;;;
2022/07/03 03:24:04;;;;;;;11.80;6.90;;;;;;;13.72;62.89;99507.19;104584;1290;27015;-88
2022/07/03 03:31:06;;;;;;;12.40;7.00;;;;;;;13.86;62.86;99495.52;104476;1297;22668;-87
2022/07/03 03:34:18;;;;;;;11.20;6.50;;;;;;;13.86;62.97;99502.69;104565;1290;22726;-87
2022/07/03 03:37:43;;;;;;;11.00;7.10;;;;;;;13.88;62.95;99502.51;104454;1290;24175;-88
2022/07/03 03:40:47;;;;;;;11.30;7.00;;;;;;;13.87;62.94;99500.79;104639;1288;23920;-86
2022/07/03 03:43:32;;;;;;;15.60;6.20;;;;;;;13.87;62.89;99496.68;104996;1288;24726;-86
2022/07/03 03:47:18;;;;;;;;;;;;;;;;;;;;;
2022/07/03 03:50:43;;;;;;;12.10;6.90;;;;;;;14.01;63.17;99497.51;104218;1294;22656;-88
2022/07/03 03:54:06;;;;;;;13.00;6.60;;;;;;;14.16;63.23;99496.94;104117;1294;25340;-87
2022/07/03 03:57:20;;;;;;;14.90;6.80;;;;;;;14.27;63.21;99498.82;104242;1294;22631;-86
2022/07/03 04:00:53;;;;;;;13.80;6.00;;;;;;;14.38;63.28;99500.86;104415;1288;22560;-90
2022/07/03 04:04:22;;;;;;;10.60;6.60;;;;;;;14.51;63.17;99514.88;104605;1291;24321;-87
2022/07/03 04:07:28;;;;;;;12.30;6.70;;;;;;;14.61;63.25;99524.77;104681;1290;22767;-87
2022/07/03 04:13:50;;;;;;;12.90;5.80;;;;;;;14.87;63.33;99515.66;104665;1290;22618;-92
2022/07/03 04:17:17;;;;;;;11.10;5.20;;;;;;;15.01;63.34;99521.88;104537;1291;22542;-88
2022/07/03 04:20:55;;;;;;;;;;;;;;;;;;;;;
2022/07/03 04:24:11;;;;;;;;;;;;;;;;;;;;;
2022/07/03 04:27:26;;;;;;;;;;;;;;;;;;;;;
2022/07/03 04:31:04;;;;;;;13.90;5.80;;;;;;;15.74;63.25;99524.38;104934;1288;24243;-87
2022/07/03 04:34:23;;;;;;;14.70;5.70;;;;;;;15.88;63.25;99518.27;104553;1291;25300;-84
2022/07/03 04:37:36;;;;;;;13.30;5.40;;;;;;;16.04;63.23;99520.70;104622;1291;22680;-86
2022/07/03 04:40:56;;;;;;;9.60;5.00;;;;;;;16.21;63.29;99510.73;105164;1282;25579;-88
2022/07/03 04:44:32;;;;;;;;;;;;;;;;;;;;;
2022/07/03 04:48:24;;;;;;;11.40;5.30;;;;;;;16.69;63.42;99503.71;104930;1291;25655;-87
2022/07/03 04:51:37;;;;;;;9.70;4.70;;;;;;;16.93;63.38;99503.17;104731;1291;24333;-89
2022/07/03 04:54:30;;;;;;;;;;;;;;;;;;;;;
2022/07/03 04:57:47;;;;;;;;;;;;;;;;;;;;;
2022/07/03 05:01:01;;;;;;;9.30;3.40;;;;;;;17.29;63.13;99505.61;105580;1279;22806;-85
2022/07/03 05:03:52;;;;;;;11.70;4.00;;;;;;;17.46;63.18;99502.59;105786;1279;25407;-87
2022/07/03 05:07:14;;;;;;;10.60;3.90;;;;;;;17.60;63.13;99496.61;105718;1279;23913;-88
2022/07/03 05:10:02;;;;;;;10.10;3.60;;;;;;;17.77;63.00;99492.84;105726;1279;24264;-87
2022/07/03 05:13:09;;;;;;;10.80;3.80;;;;;;;17.91;62.94;99491.16;105721;1279;22543;-86
2022/07/03 05:15:46;;;;;;;8.70;3.50;;;;;;;18.04;62.86;99485.95;105563;1279;26565;-86
2022/07/03 05:19:01;;;;;;;9.50;3.60;;;;;;;18.10;62.71;99482.85;105771;1279;25361;-86
2022/07/03 05:21:41;;;;;;;8.30;3.40;;;;;;;18.21;62.80;99477.25;106397;1271;22613;-86
2022/07/03 05:24:46;;;;;;;7.40;3.60;;;;;;;18.34;62.86;99478.68;106329;1273;23156;-88
2022/07/03 05:27:53;;;;;;;8.70;3.10;;;;;;;18.50;62.97;99475.89;106500;1273;24066;-87
2022/07/03 05:31:20;;;;;;;7.30;3.10;;;;;;;18.71;62.75;99476.69;106530;1273;25516;-86
2022/07/03 05:35:20;;;;;;;8.00;2.80;;;;;;;19.00;62.63;99480.67;106453;1274;22556;-88
2022/07/03 05:37:50;;;;;;;7.90;3.40;;;;;;;19.25;62.38;99483.55;105829;1280;22550;-86
2022/07/03 05:40:43;;;;;;;7.50;3.60;;;;;;;19.44;62.52;99484.83;105785;1280;22628;-86
2022/07/03 05:43:50;;;;;;;7.60;3.20;;;;;;;19.59;62.50;99482.64;105861;1278;25570;-87
2022/07/03 05:46:50;;;;;;;7.10;3.10;;;;;;;19.69;62.25;99492.95;105909;1279;22697;-85
2022/07/03 05:49:51;;;;;;;7.10;3.50;;;;;;;19.81;62.31;99496.02;105922;1279;24415;-89
2022/07/03 05:53:17;;;;;;;7.10;3.40;;;;;;;19.93;62.43;99501.11;105868;1278;24225;-86
2022/07/03 05:56:50;;;;;;;7.90;3.50;;;;;;;20.00;62.28;99504.69;106279;1280;22549;-85
2022/07/03 05:59:50;;;;;;;7.70;3.20;;;;;;;20.13;62.47;99508.17;105660;1285;25479;-87
2022/07/03 06:03:02;;;;;;;8.10;3.40;;;;;;;20.27;62.61;99505.15;105290;1284;22589;-88
2022/07/03 06:06:32;;;;;;;;;;;;;;;;;;;;;
2022/07/03 06:09:47;;;;;;;10.00;3.40;;;;;;;20.42;62.26;99497.95;105289;1285;24123;-86
2022/07/03 06:13:08;;;;;;;7.60;2.90;;;;;;;20.45;62.56;99496.16;105137;1288;22601;-90
2022/07/03 06:17:11;;;;;;;9.00;3.40;;;;;;;20.56;62.47;99495.98;105703;1279;26072;-88
2022/07/03 06:20:42;;;;;;;8.50;3.90;;;;;;;20.68;62.59;99494.60;105358;1285;22651;-87
2022/07/03 06:24:05;;;;;;;;;;;;;;;;;;;;;
2022/07/03 06:27:28;;;;;;;;;;;;;;;;;;;;;
2022/07/03 06:30:40;;;;;;;10.50;4.00;;;;;;;21.14;62.41;99480.83;104479;1291;24370;-88
2022/07/03 06:34:45;;;;;;;8.50;4.20;;;;;;;21.33;62.22;99484.67;104519;1291;24145;-86
2022/07/03 06:38:23;;;;;;;8.60;4.00;;;;;;;21.47;62.32;99482.92;104399;1290;23053;-89
2022/07/03 06:41:44;;;;;;;9.30;3.70;;;;;;;21.58;62.13;99485.50;104841;1290;22564;-88
2022/07/03 06:45:10;;;;;;;;;;;;;;;;;;;;;
2022/07/03 06:48:35;;;;;;;;;;;;;;;;;;;;;
2022/07/03 06:52:14;;;;;;;;;;;;;;;;;;;;;
2022/07/03 06:55:17;;;;;;;;;;;;;;;;;;;;;
2022/07/03 06:58:34;;;;;;;8.00;4.00;;;;;;;22.43;61.78;99479.09;103468;1303;22790;-87
2022/07/03 07:01:56;;;;;;;7.70;3.20;;;;;;;22.51;61.69;99471.21;103811;1299;22768;-89
2022/07/03 07:05:10;;;;;;;9.00;4.10;;;;;;;22.66;61.86;99470.04;103943;1302;22594;-88
2022/07/03 07:08:29;;;;;;;;;;;;;;;;;;;;;
2022/07/03 07:12:05;;;;;;;9.20;3.80;;;;;;;23.05;61.55;99464.02;103799;1303;23529;-87
2022/07/03 07:15:10;;;;;;;;;;;;;;;;;;;;;
2022/07/03 07:18:01;;;;;;;7.50;3.80;;;;;;;23.51;61.28;99457.29;103857;1297;25525;-87
2022/07/03 07:20:45;;;;;;;8.90;3.20;;;;;;;23.65;61.28;99456.25;103794;1297;22578;-87
2022/07/03 07:23:32;;;;;;;7.80;3.30;;;;;;;23.82;60.97;99452.08;104018;1291;22696;-87
2022/07/03 07:26:20;;;;;;;8.20;3.20;;;;;;;23.93;60.84;99451.75;104419;1291;24590;-88
2022/07/03 07:29:07;;;;;;;7.20;3.00;;;;;;;24.01;60.55;99449.89;104439;1294;22579;-89
2022/07/03 07:31:55;;;;;;;6.60;2.90;;;;;;;24.16;60.73;99443.02;105373;1281;23367;-88
2022/07/03 07:34:40;;;;;;;5.50;2.60;;;;;;;24.27;60.70;99442.54;106374;1274;25330;-84
2022/07/03 07:37:16;;;;;;;7.10;2.50;;;;;;;24.34;60.66;99446.30;106398;1271;24678;-91
2022/07/03 07:39:58;;;;;;;6.10;2.40;;;;;;;24.33;60.37;99445.39;106359;1271;25467;-85
2022/07/03 07:42:41;;;;;;;5.50;2.50;;;;;;;24.27;60.42;99450.86;106124;1274;22525;-87
2022/07/03 07:45:19;;;;;;;5.00;2.20;;;;;;;24.49;60.31;99443.14;106408;1274;25522;-85
2022/07/03 07:48:02;;;;;;;6.10;2.00;;;;;;;24.68;59.95;99442.70;106338;1274;24409;-87
2022/07/03 07:50:42;;;;;;;7.60;1.80;;;;;;;24.85;59.87;99435.38;106142;1274;25306;-85
2022/07/03 07:53:33;;;;;;;5.10;1.90;;;;;;;24.99;59.63;99437.52;106330;1273;25569;-89
2022/07/03 07:56:11;;;;;;;5.30;2.40;;;;;;;25.17;59.81;99433.44;106280;1274;25282;-88
2022/07/03 07:58:47;;;;;;;4.50;2.00;;;;;;;25.43;59.70;99434.31;106236;1275;26571;-88
2022/07/03 08:07:22;;;;;;;6.00;2.10;;;;;;;24.40;59.11;99437.89;106409;1271;23897;-87
2022/07/03 08:10:01;;;;;;;7.10;2.20;;;;;;;24.22;59.45;99432.44;106377;1274;22648;-86
2022/07/03 08:12:39;;;;;;;4.50;2.10;;;;;;;24.08;59.21;99433.53;106575;1271;22794;-88
2022/07/03 08:15:29;;;;;;;5.80;2.10;;;;;;;24.22;59.42;99430.76;106222;1272;22550;-86
2022/07/03 08:18:16;;;;;;;4.20;2.10;;;;;;;24.60;59.25;99433.50;106556;1271;22560;-84
2022/07/03 08:20:59;;;;;;;4.60;1.90;;;;;;;24.93;58.79;99426.98;106651;1271;24207;-87
2022/07/03 08:23:41;;;;;;;3.80;1.50;;;;;;;25.06;58.55;99421.38;106795;1271;22538;-86
2022/07/03 08:26:46;;;;;;;4.70;1.40;;;;;;;24.91;58.30;99419.11;106414;1274;22554;-86
2022/07/03 08:29:18;;;;;;;3.40;1.40;;;;;;;25.00;58.52;99412.14;106315;1271;24243;-85
2022/07/03 08:31:56;;;;;;;3.90;1.40;;;;;;;25.29;58.27;99417.69;106314;1271;22828;-87
2022/07/03 08:34:31;;;;;;;3.80;1.50;;;;;;;25.37;57.86;99419.63;106418;1271;25307;-86
2022/07/03 08:37:11;;;;;;;3.40;1.60;;;;;;;25.44;57.71;99418.09;106408;1271;22554;-86
2022/07/03 08:39:51;;;;;;;3.70;1.60;;;;;;;25.55;57.62;99415.40;106420;1274;25379;-87
2022/07/03 08:42:34;;;;;;;3.70;1.90;;;;;;;25.72;57.64;99416.04;106343;1271;24434;-86
2022/07/03 08:45:28;;;;;;;4.00;1.80;;;;;;;25.95;57.60;99409.94;106396;1272;24404;-87
2022/07/03 08:48:19;;;;;;;4.10;1.80;;;;;;;25.99;57.43;99406.69;106721;1271;22747;-85
2022/07/03 08:51:16;;;;;;;4.50;1.90;;;;;;;25.69;57.19;99410.08;106513;1271;22533;-88
2022/07/03 08:54:05;;;;;;;6.60;2.20;;;;;;;25.35;57.02;99411.11;106767;1273;24348;-88
2022/07/03 08:56:43;;;;;;;5.10;1.90;;;;;;;25.05;57.18;99405.35;106734;1271;22548;-86
2022/07/03 08:59:32;;;;;;;5.30;2.40;;;;;;;25.07;57.32;99408.11;106404;1274;22704;-87
2022/07/03 09:02:12;;;;;;;6.40;2.40;;;;;;;24.84;57.04;99409.57;106481;1274;25483;-85
2022/07/03 09:05:02;;;;;;;;;;;;;;;;;;;;;
2022/07/03 09:07:39;;;;;;;6.10;2.70;;;;;;;25.35;57.63;99402.14;106541;1271;25420;-86
2022/07/03 09:10:18;;;;;;;9.50;2.70;;;;;;;25.83;57.04;99400.89;107229;1271;22550;-90
2022/07/03 09:12:52;;;;;;;5.50;2.40;;;;;;;26.08;56.75;99392.92;106392;1272;25243;-85
2022/07/03 09:15:29;;;;;;;6.50;2.80;;;;;;;26.26;56.58;99398.66;106805;1271;24230;-87
2022/07/03 09:18:08;;;;;;;5.80;2.60;;;;;;;26.11;56.28;99392.90;106319;1274;22650;-85
2022/07/03 09:20:49;;;;;;;5.30;2.50;;;;;;;25.85;56.33;99395.56;106742;1271;25290;-86
2022/07/03 09:23:22;;;;;;;6.30;2.40;;;;;;;25.97;56.36;99392.91;106235;1271;22534;-86
2022/07/03 09:26:08;;;;;;;5.40;2.50;;;;;;;25.96;56.13;99390.80;107049;1271;25300;-88
2022/07/03 09:29:03;;;;;;;4.60;2.50;;;;;;;25.96;56.28;99390.45;106429;1271;25235;-87
2022/07/03 09:31:53;;;;;;;5.60;2.40;;;;;;;26.40;55.88;99386.95;106364;1271;22687;-86
2022/07/03 09:34:48;;;;;;;5.40;2.60;;;;;;;26.26;55.51;99385.60;106949;1271;22552;-84
2022/07/03 09:38:02;;;;;;;6.10;2.60;;;;;;;25.91;55.24;99388.36;106660;1271;22535;-88
2022/07/03 09:41:20;;;;;;;5.60;2.60;;;;;;;25.50;55.58;99381.23;106385;1271;22750;-85
2022/07/03 09:44:47;;;;;;;;;;;;;;;;;;;;;
2022/07/03 09:48:27;;;;;;;6.30;2.20;;;;;;;26.35;55.51;99376.11;105841;1279;25339;-85
2022/07/03 09:51:00;;;;;;;;;;;;;;;;;;;;;
2022/07/03 09:54:20;;;;;;;6.30;2.60;;;;;;;25.88;55.46;99374.11;105833;1280;25368;-86
2022/07/03 09:58:12;;;;;;;6.20;2.60;;;;;;;26.50;55.44;99369.41;105997;1280;22560;-89
2022/07/03 10:01:58;;;;;;;5.50;2.40;;;;;;;26.96;54.81;99369.41;105865;1280;23955;-86
2022/07/03 10:04:57;;;;;;;5.00;2.60;;;;;;;27.30;54.70;99366.59;107181;1285;25395;-87
2022/07/03 10:08:21;;;;;;;5.90;2.70;;;;;;;27.48;54.48;99357.73;105949;1285;22549;-88
2022/07/03 10:11:17;;;;;;;6.90;2.60;;;;;;;27.68;54.49;99350.91;105487;1284;22732;-86
2022/07/03 10:14:25;;;;;;;6.50;2.60;;;;;;;27.92;54.25;99346.78;105287;1284;22571;-87
2022/07/03 10:18:02;;;;;;;;;;;;;;;;;;;;;
2022/07/03 10:21:22;;;;;;;;;;;;;;;;;;;;;
2022/07/03 10:25:11;;;;;;;4.70;2.30;;;;;;;27.61;53.40;99343.95;105833;1280;25494;-87
2022/07/03 10:28:06;;;;;;;5.00;2.60;;;;;;;27.72;53.66;99345.26;105725;1283;25489;-88
2022/07/03 10:35:39;;;;;;;;;;;;;;;;;;;;;
2022/07/03 10:39:37;;;;;;;;;;;;;;;;;;;;;
2022/07/03 10:46:54;;;;;;;;;;;;;;;;;;;;;
2022/07/03 10:51:07;;;;;;;6.60;3.10;;;;;;;27.83;52.68;99325.83;105214;1288;22624;-85
2022/07/03 10:53:34;;;;;;;5.20;2.60;;;;;;;27.99;53.13;99316.87;104586;1294;23385;-87
2022/07/03 10:56:14;;;;;;;6.90;2.80;;;;;;;28.14;52.72;99319.00;104639;1294;24330;-86
2022/07/03 10:59:12;;;;;;;5.90;3.00;;;;;;;28.17;52.46;99311.08;104618;1295;22758;-89
2022/07/03 11:01:47;;;;;;;5.60;2.90;;;;;;;28.27;52.52;99302.67;104062;1294;22601;-89
2022/07/03 11:04:25;;;;;;;7.70;3.10;;;;;;;28.38;52.17;99296.15;104288;1291;24386;-87
2022/07/03 11:07:18;;;;;;;6.10;2.80;;;;;;;28.33;51.89;99298.77;104586;1291;25286;-88
2022/07/03 11:10:31;;;;;;;6.10;2.80;;;;;;;28.35;52.21;99297.34;104939;1290;22619;-90
2022/07/03 11:13:16;;;;;;;6.20;2.90;;;;;;;28.45;51.72;99298.21;105822;1285;22544;-88
2022/07/03 11:15:57;;;;;;;6.70;3.10;;;;;;;28.41;52.03;99295.40;106136;1281;22582;-87
2022/07/03 11:19:01;;;;;;;6.20;3.10;;;;;;;28.48;51.96;99297.05;106202;1281;24244;-88
2022/07/03 11:21:55;;;;;;;5.50;2.70;;;;;;;28.50;51.77;99301.52;105888;1281;22692;-87
2022/07/03 11:24:57;;;;;;;6.40;2.40;;;;;;;28.32;50.86;99291.14;105877;1281;22542;-87
2022/07/03 11:27:42;;;;;;;5.80;2.80;;;;;;;27.66;50.31;99288.27;106215;1281;22559;-86
2022/07/03 11:30:38;;;;;;;6.50;2.90;;;;;;;27.49;51.30;99285.65;106520;1271;23311;-87
2022/07/03 11:33:31;;;;;;;5.60;2.70;;;;;;;27.50;51.23;99276.16;106164;1274;22625;-87
2022/07/03 11:36:09;;;;;;;5.10;2.80;;;;;;;27.62;51.64;99271.36;106693;1271;22543;-87
2022/07/03 11:39:32;;;;;;;7.50;3.00;;;;;;;27.87;51.51;99264.25;106723;1271;25415;-88
2022/07/03 11:42:11;;;;;;;7.70;3.00;;;;;;;28.08;51.38;99261.20;106299;1274;22573;-88
2022/07/03 11:44:42;;;;;;;6.40;3.10;;;;;;;28.23;51.17;99263.70;106355;1274;24033;-85
2022/07/03 11:47:15;;;;;;;6.10;2.80;;;;;;;28.32;50.98;99259.70;106361;1274;24085;-85
2022/07/03 11:49:58;;;;;;;6.30;2.90;;;;;;;28.37;50.90;99263.73;106741;1271;22563;-86
2022/07/03 11:52:43;;;;;;;6.70;3.10;;;;;;;28.45;50.46;99267.45;107029;1274;25365;-90
2022/07/03 11:55:26;;;;;;;7.40;3.20;;;;;;;28.50;50.59;99263.60;106526;1271;22578;-86
2022/07/03 11:58:18;;;;;;;6.20;3.10;;;;;;;28.55;50.60;99263.70;106876;1271;22547;-90
2022/07/03 12:01:03;;;;;;;6.30;2.90;;;;;;;28.65;50.66;99263.55;106322;1274;22592;-94
2022/07/03 12:03:36;;;;;;;6.10;3.00;;;;;;;28.82;50.72;99258.39;106272;1271;24411;-89
2022/07/03 12:06:06;;;;;;;6.70;3.20;;;;;;;28.97;50.46;99255.04;106319;1271;22791;-86
2022/07/03 12:08:40;;;;;;;5.40;2.70;;;;;;;28.99;50.41;99250.54;106794;1271;23440;-86
2022/07/03 12:11:25;;;;;;;7.10;2.90;;;;;;;28.94;50.19;99247.46;106064;1274;22543;-86
2022/07/03 12:14:02;;;;;;;7.10;3.00;;;;;;;28.89;50.06;99244.27;106356;1271;22795;-86
2022/07/03 12:17:00;;;;;;;;;;;;;;;;;;;;;
2022/07/03 12:20:02;;;;;;;5.30;2.90;;;;;;;28.77;49.84;99240.41;106385;1271;22574;-88
2022/07/03 12:23:13;;;;;;;6.30;3.10;;;;;;;28.76;49.96;99229.60;106216;1271;22532;-87
2022/07/03 12:25:59;;;;;;;5.00;2.70;;;;;;;28.77;49.75;99231.48;106313;1271;24069;-88
2022/07/03 12:28:47;;;;;;;6.40;3.00;;;;;;;28.80;49.81;99230.17;106266;1271;25241;-87
2022/07/03 12:31:36;;;;;;;5.90;2.90;;;;;;;28.87;49.84;99229.52;106280;1272;23915;-88
2022/07/03 12:34:23;;;;;;;5.80;2.90;;;;;;;28.91;49.78;99232.23;106325;1271;24219;-90
2022/07/03 12:37:07;;;;;;;7.30;2.80;;;;;;;28.84;48.84;99231.90;106274;1271;22550;-91
2022/07/03 12:40:01;;;;;;;6.20;2.60;;;;;;;28.49;49.25;99230.43;106216;1271;24201;-87
2022/07/03 12:42:59;;;;;;;6.90;3.10;;;;;;;28.43;49.27;99228.40;106295;1271;25210;-88
2022/07/03 12:45:41;;;;;;;7.10;3.40;;;;;;;28.45;49.36;99224.17;106291;1271;22556;-87
2022/07/03 12:48:42;;;;;;;10.60;4.50;;;;;;;28.58;49.40;99220.56;106228;1271;25650;-84
2022/07/03 12:51:40;;;;;;;6.30;3.10;;;;;;;28.63;48.87;99218.92;106239;1274;25414;-88
2022/07/03 12:54:50;;;;;;;6.50;3.00;;;;;;;28.53;49.25;99214.57;106263;1271;22564;-87
2022/07/03 13:00:47;;;;;;;7.20;2.90;;;;;;;28.52;48.90;99203.07;106327;1274;22704;-88
2022/07/03 13:03:59;;;;;;;5.30;2.70;;;;;;;28.40;48.74;99198.85;106385;1272;22844;-90
2022/07/03 13:06:46;;;;;;;6.30;2.90;;;;;;;28.40;48.78;99194.64;106344;1272;22570;-88
2022/07/03 13:09:32;;;;;;;7.30;2.60;;;;;;;28.23;48.22;99192.31;106132;1274;22557;-87
2022/07/03 13:12:25;;;;;;;5.40;2.70;;;;;;;28.10;48.54;99190.48;106190;1271;24258;-88
2022/07/03 13:15:22;;;;;;;6.60;2.70;;;;;;;28.17;49.06;99189.90;106475;1271;25282;-87
2022/07/03 13:17:55;;;;;;;6.20;2.90;;;;;;;28.28;48.49;99188.39;106216;1271;22531;-92
2022/07/03 13:20:51;;;;;;;5.40;2.70;;;;;;;28.39;48.50;99187.08;106406;1271;22564;-88
2022/07/03 13:23:35;;;;;;;5.80;2.60;;;;;;;28.50;48.56;99183.17;106263;1274;25262;-87
2022/07/03 13:26:27;;;;;;;6.10;2.70;;;;;;;28.61;48.46;99171.81;106453;1271;22547;-88
2022/07/03 13:29:12;;;;;;;5.00;2.60;;;;;;;28.69;48.20;99172.29;106465;1271;25218;-87
2022/07/03 13:31:59;;;;;;;5.90;2.70;;;;;;;28.58;47.93;99171.30;106379;1274;25373;-88
2022/07/03 13:34:53;;;;;;;5.10;2.80;;;;;;;28.58;47.98;99168.11;106332;1271;22528;-88
2022/07/03 13:37:41;;;;;;;5.70;2.70;;;;;;;28.58;48.22;99167.23;106393;1271;22534;-87
2022/07/03 13:40:24;;;;;;;5.90;2.90;;;;;;;28.75;48.20;99162.98;106297;1272;25357;-87
2022/07/03 13:43:22;;;;;;;6.50;2.60;;;;;;;28.82;48.15;99160.92;106284;1271;24227;-90
2022/07/03 13:46:46;;;;;;;7.60;2.70;;;;;;;28.87;47.73;99165.28;106463;1271;22532;-87
2022/07/03 13:49:54;;;;;;;;;;;;;;;;;;;;;
2022/07/03 13:52:25;;;;;;;5.90;2.90;;;;;;;28.75;47.45;99153.38;106482;1271;22560;-88
2022/07/03 13:55:35;;;;;;;5.80;2.40;;;;;;;28.73;47.58;99152.67;106161;1271;22652;-86
2022/07/03 13:59:01;;;;;;;5.70;2.70;;;;;;;28.87;47.71;99153.48;106225;1272;25678;-88
2022/07/03 14:02:15;;;;;;;5.50;2.60;;;;;;;29.00;47.86;99153.77;106250;1271;22615;-88
2022/07/03 14:05:55;;;;;;;5.20;2.40;;;;;;;29.24;48.12;99154.34;106280;1271;22534;-90
2022/07/03 14:08:50;;;;;;;5.50;2.50;;;;;;;29.44;47.52;99156.73;106221;1271;23911;-87
2022/07/03 14:11:44;;;;;;;6.90;2.70;;;;;;;29.48;47.48;99155.63;106629;1272;22529;-88
2022/07/03 14:14:49;;;;;;;;;;;;;;;;;;;;;
2022/07/03 14:18:19;;;;;;;5.70;2.50;;;;;;;29.41;46.45;99156.17;106341;1273;22557;-86
2022/07/03 14:21:29;;;;;;;5.10;2.50;;;;;;;28.88;47.14;99152.74;106434;1273;22715;-89
2022/07/03 14:23:59;;;;;;;6.40;2.50;;;;;;;29.02;47.40;99148.20;106343;1274;25345;-88
2022/07/03 14:33:43;;;;;;;7.20;2.90;;;;;;;29.05;46.72;99141.86;106387;1271;22569;-89
2022/07/03 14:36:41;;;;;;;5.00;2.60;;;;;;;29.07;46.97;99141.59;106361;1274;22638;-87
2022/07/03 14:40:15;;;;;;;6.00;2.50;;;;;;;29.27;47.10;99138.73;106355;1273;22668;-88
2022/07/03 14:42:52;;;;;;;6.10;2.60;;;;;;;29.38;46.63;99129.09;106193;1274;25351;-87
2022/07/03 14:45:19;;;;;;;5.50;2.80;;;;;;;29.38;46.58;99128.88;105962;1274;428977;-88
2022/07/03 14:47:46;;;;;;;5.10;2.60;;;;;;;29.40;46.70;99126.20;106435;1274;25239;-90
2022/07/03 14:50:40;;;;;;;5.20;2.20;;;;;;;29.29;46.35;99129.02;106391;1273;24231;-89
2022/07/03 14:53:36;;;;;;;5.30;2.40;;;;;;;29.18;46.32;99128.61;106373;1274;22571;-85
2022/07/03 14:56:37;;;;;;;6.20;2.70;;;;;;;29.02;45.62;99128.61;106099;1273;22536;-88
2022/07/03 14:59:58;;;;;;;6.00;2.50;;;;;;;28.84;45.61;99127.70;106092;1274;22764;-86
2022/07/03 15:02:52;;;;;;;7.20;2.50;;;;;;;28.67;45.99;99125.08;105701;1281;25379;-87
2022/07/03 15:06:17;;;;;;;6.10;2.70;;;;;;;28.84;46.16;99120.69;105581;1281;22546;-88
2022/07/03 15:09:20;;;;;;;5.30;2.60;;;;;;;29.03;46.20;99121.74;105682;1279;25316;-87
2022/07/03 15:12:32;;;;;;;6.30;3.00;;;;;;;29.16;46.27;99115.59;105652;1280;23170;-86
2022/07/03 15:15:24;;;;;;;5.80;2.50;;;;;;;29.27;46.28;99115.13;105542;1281;22560;-87
2022/07/03 15:18:26;;;;;;;;;;;;;;;;;;;;;
2022/07/03 15:22:12;;;;;;;5.40;2.70;;;;;;;29.67;46.41;99108.23;105627;1279;25429;-89
2022/07/03 15:25:56;;;;;;;7.80;3.00;;;;;;;29.93;46.29;99106.30;105070;1287;24686;-87
2022/07/03 15:28:52;;;;;;;5.00;2.50;;;;;;;30.14;46.17;99106.38;104977;1286;22708;-89
2022/07/03 15:32:29;;;;;;;;;;;;;;;;;;;;;
2022/07/03 15:35:44;;;;;;;6.80;2.40;;;;;;;30.90;46.26;99102.55;103889;1297;25310;-87
2022/07/03 15:38:38;;;;;;;6.50;3.30;;;;;;;31.31;45.92;99095.20;103846;1297;24420;-87
2022/07/03 15:41:27;;;;;;;6.80;3.80;;;;;;;31.63;45.80;99094.45;103963;1294;22587;-92
2022/07/03 15:45:16;;;;;;;4.50;2.30;;;;;;;31.91;45.67;99090.66;104016;1294;22625;-89
2022/07/03 15:48:41;;;;;;;6.00;2.40;;;;;;;32.26;45.43;99091.52;103798;1300;24319;-88
2022/07/03 15:51:42;;;;;;;5.30;2.30;;;;;;;32.50;45.32;99091.36;103407;1303;25538;-88
2022/07/03 15:54:54;;;;;;;5.30;2.70;;;;;;;32.50;45.25;99084.30;103404;1303;25111;-88
2022/07/03 15:58:03;;;;;;;5.10;2.50;;;;;;;32.28;45.02;99083.64;103609;1303;22583;-88
2022/07/03 16:04:45;;;;;;;6.00;2.60;;;;;;;32.82;44.77;99078.31;105077;1287;24233;-90
2022/07/03 16:07:47;;;;;;;5.00;2.60;;;;;;;33.11;44.69;99073.42;105195;1286;24151;-88
2022/07/03 16:10:37;;;;;;;5.70;2.30;;;;;;;33.31;44.62;99073.23;104891;1287;22633;-88
2022/07/03 16:13:43;;;;;;;7.20;3.30;;;;;;;33.45;44.38;99071.92;104943;1286;22808;-88
2022/07/03 16:16:31;;;;;;;8.50;4.70;;;;;;;33.59;44.25;99070.66;102833;1283;24802;-86
2022/07/03 16:19:22;;;;;;;12.50;7.90;;;;;;;33.65;44.04;99071.76;105500;1283;24288;-87
2022/07/03 16:22:07;;;;;;;7.00;3.20;;;;;;;33.71;43.88;99069.23;105690;1283;24482;-89
2022/07/03 16:24:46;;;;;;;6.60;3.70;;;;;;;33.66;43.82;99068.27;105307;1283;24286;-90
2022/07/03 16:27:34;;;;;;;5.60;2.70;;;;;;;33.73;43.83;99069.73;105885;1286;25331;-88
2022/07/03 16:30:20;;;;;;;5.90;2.70;;;;;;;33.78;43.76;99068.08;105300;1283;25255;-87